sensor_id;sensor_type;location;lat;lon;timestamp;P1;durP1;ratioP1;P2;durP2;ratioP2
65971;SDS011;52726;48.852;9.152;2023-06-22T00:00:52;8.00;;;5.95;;
65971;SDS011;52726;48.852;9.152;2023-06-22T00:03:18;9.75;;;5.88;;
65971;SDS011;52726;48.852;9.152;2023-06-22T00:05:44;8.10;;;5.47;;
65971;SDS011;52726;48.852;9.152;2023-06-22T00:08:13;6.65;;;5.10;;
65971;SDS011;52726;48.852;9.152;2023-06-22T00:10:39;8.05;;;5.30;;
65971;SDS011;52726;48.852;9.152;2023-06-22T00:13:05;8.80;;;5.82;;
65971;SDS011;52726;48.852;9.152;2023-06-22T00:15:31;8.38;;;5.47;;
65971;SDS011;52726;48.852;9.152;2023-06-22T00:18:01;6.43;;;4.93;;
65971;SDS011;52726;48.852;9.152;2023-06-22T00:20:27;9.27;;;5.40;;
65971;SDS011;52726;48.852;9.152;2023-06-22T00:22:53;8.95;;;6.30;;
65971;SDS011;52726;48.852;9.152;2023-06-22T00:25:19;9.52;;;5.85;;
65971;SDS011;52726;48.852;9.152;2023-06-22T00:27:44;7.85;;;5.40;;
65971;SDS011;52726;48.852;9.152;2023-06-22T00:30:10;7.90;;;5.35;;
65971;SDS011;52726;48.852;9.152;2023-06-22T00:32:35;8.50;;;5.72;;
65971;SDS011;52726;48.852;9.152;2023-06-22T00:35:01;8.50;;;5.43;;
65971;SDS011;52726;48.852;9.152;2023-06-22T00:37:26;10.98;;;6.00;;
65971;SDS011;52726;48.852;9.152;2023-06-22T00:39:54;9.48;;;5.82;;
65971;SDS011;52726;48.852;9.152;2023-06-22T00:42:20;10.23;;;5.75;;
65971;SDS011;52726;48.852;9.152;2023-06-22T00:44:45;10.13;;;5.85;;
65971;SDS011;52726;48.852;9.152;2023-06-22T00:47:11;10.60;;;5.55;;
65971;SDS011;52726;48.852;9.152;2023-06-22T00:49:39;8.88;;;5.47;;
65971;SDS011;52726;48.852;9.152;2023-06-22T00:52:04;10.40;;;6.18;;
65971;SDS011;52726;48.852;9.152;2023-06-22T00:54:34;6.95;;;5.78;;
65971;SDS011;52726;48.852;9.152;2023-06-22T00:57:01;10.88;;;6.28;;
65971;SDS011;52726;48.852;9.152;2023-06-22T00:59:27;9.13;;;5.78;;
65971;SDS011;52726;48.852;9.152;2023-06-22T01:01:52;9.73;;;5.85;;
65971;SDS011;52726;48.852;9.152;2023-06-22T01:04:18;10.05;;;6.13;;
65971;SDS011;52726;48.852;9.152;2023-06-22T01:06:50;11.63;;;5.85;;
65971;SDS011;52726;48.852;9.152;2023-06-22T01:09:27;10.20;;;6.38;;
65971;SDS011;52726;48.852;9.152;2023-06-22T01:11:58;9.55;;;6.13;;
65971;SDS011;52726;48.852;9.152;2023-06-22T01:14:28;8.45;;;5.82;;
65971;SDS011;52726;48.852;9.152;2023-06-22T01:17:03;12.52;;;6.13;;
65971;SDS011;52726;48.852;9.152;2023-06-22T01:19:50;7.43;;;5.40;;
65971;SDS011;52726;48.852;9.152;2023-06-22T01:22:31;12.32;;;6.10;;
65971;SDS011;52726;48.852;9.152;2023-06-22T01:30:20;12.15;;;6.95;;
65971;SDS011;52726;48.852;9.152;2023-06-22T01:32:47;10.88;;;6.95;;
65971;SDS011;52726;48.852;9.152;2023-06-22T01:35:14;13.40;;;7.40;;
65971;SDS011;52726;48.852;9.152;2023-06-22T01:37:40;13.80;;;7.35;;
65971;SDS011;52726;48.852;9.152;2023-06-22T01:40:06;11.82;;;7.25;;
65971;SDS011;52726;48.852;9.152;2023-06-22T01:42:33;16.02;;;6.72;;
65971;SDS011;52726;48.852;9.152;2023-06-22T01:44:59;10.70;;;6.78;;
65971;SDS011;52726;48.852;9.152;2023-06-22T01:47:25;9.68;;;6.88;;
65971;SDS011;52726;48.852;9.152;2023-06-22T01:49:52;13.45;;;6.50;;
65971;SDS011;52726;48.852;9.152;2023-06-22T01:52:18;9.88;;;6.88;;
65971;SDS011;52726;48.852;9.152;2023-06-22T01:54:46;12.93;;;7.13;;
65971;SDS011;52726;48.852;9.152;2023-06-22T01:57:11;10.80;;;6.75;;
65971;SDS011;52726;48.852;9.152;2023-06-22T01:59:37;10.38;;;6.63;;
65971;SDS011;52726;48.852;9.152;2023-06-22T02:02:10;11.20;;;6.80;;
65971;SDS011;52726;48.852;9.152;2023-06-22T02:04:44;15.00;;;6.70;;
65971;SDS011;52726;48.852;9.152;2023-06-22T02:07:13;13.25;;;6.50;;
65971;SDS011;52726;48.852;9.152;2023-06-22T02:09:42;17.67;;;7.32;;
65971;SDS011;52726;48.852;9.152;2023-06-22T02:12:11;10.35;;;6.72;;
65971;SDS011;52726;48.852;9.152;2023-06-22T02:14:38;9.60;;;6.55;;
65971;SDS011;52726;48.852;9.152;2023-06-22T02:17:04;9.98;;;6.82;;
65971;SDS011;52726;48.852;9.152;2023-06-22T02:19:32;13.60;;;6.65;;
65971;SDS011;52726;48.852;9.152;2023-06-22T02:22:01;11.10;;;6.68;;
65971;SDS011;52726;48.852;9.152;2023-06-22T02:24:27;12.57;;;7.43;;
65971;SDS011;52726;48.852;9.152;2023-06-22T02:26:55;9.90;;;6.85;;
65971;SDS011;52726;48.852;9.152;2023-06-22T02:29:22;12.05;;;7.45;;
65971;SDS011;52726;48.852;9.152;2023-06-22T02:31:47;10.15;;;7.32;;
65971;SDS011;52726;48.852;9.152;2023-06-22T02:34:13;13.30;;;7.22;;
65971;SDS011;52726;48.852;9.152;2023-06-22T02:36:43;11.75;;;5.97;;
65971;SDS011;52726;48.852;9.152;2023-06-22T02:39:15;10.90;;;6.68;;
65971;SDS011;52726;48.852;9.152;2023-06-22T02:41:48;8.32;;;6.30;;
65971;SDS011;52726;48.852;9.152;2023-06-22T02:44:17;11.82;;;6.57;;
65971;SDS011;52726;48.852;9.152;2023-06-22T02:46:43;13.20;;;6.38;;
65971;SDS011;52726;48.852;9.152;2023-06-22T02:49:09;10.93;;;6.57;;
65971;SDS011;52726;48.852;9.152;2023-06-22T02:51:35;9.30;;;6.70;;
65971;SDS011;52726;48.852;9.152;2023-06-22T02:54:00;9.88;;;6.95;;
65971;SDS011;52726;48.852;9.152;2023-06-22T02:56:26;10.15;;;6.60;;
65971;SDS011;52726;48.852;9.152;2023-06-22T02:58:53;10.85;;;7.55;;
65971;SDS011;52726;48.852;9.152;2023-06-22T03:01:18;12.48;;;6.85;;
65971;SDS011;52726;48.852;9.152;2023-06-22T03:03:48;10.70;;;6.50;;
65971;SDS011;52726;48.852;9.152;2023-06-22T03:06:14;11.05;;;7.45;;
65971;SDS011;52726;48.852;9.152;2023-06-22T03:08:39;10.20;;;7.13;;
65971;SDS011;52726;48.852;9.152;2023-06-22T03:11:06;10.35;;;7.35;;
65971;SDS011;52726;48.852;9.152;2023-06-22T03:13:32;9.93;;;6.32;;
65971;SDS011;52726;48.852;9.152;2023-06-22T03:15:58;11.55;;;5.93;;
65971;SDS011;52726;48.852;9.152;2023-06-22T03:18:23;10.18;;;7.03;;
65971;SDS011;52726;48.852;9.152;2023-06-22T03:20:48;10.00;;;6.70;;
65971;SDS011;52726;48.852;9.152;2023-06-22T03:23:14;9.20;;;6.57;;
65971;SDS011;52726;48.852;9.152;2023-06-22T03:25:39;10.68;;;6.95;;
65971;SDS011;52726;48.852;9.152;2023-06-22T03:28:05;14.50;;;6.65;;
65971;SDS011;52726;48.852;9.152;2023-06-22T03:30:31;10.75;;;6.93;;
65971;SDS011;52726;48.852;9.152;2023-06-22T03:32:56;9.02;;;6.57;;
65971;SDS011;52726;48.852;9.152;2023-06-22T03:35:21;11.15;;;7.00;;
65971;SDS011;52726;48.852;9.152;2023-06-22T03:37:47;8.65;;;6.78;;
65971;SDS011;52726;48.852;9.152;2023-06-22T03:40:12;10.55;;;7.03;;
65971;SDS011;52726;48.852;9.152;2023-06-22T03:42:37;14.23;;;6.95;;
65971;SDS011;52726;48.852;9.152;2023-06-22T03:55:34;10.90;;;6.82;;
65971;SDS011;52726;48.852;9.152;2023-06-22T04:03:46;11.48;;;7.70;;
65971;SDS011;52726;48.852;9.152;2023-06-22T04:06:14;11.18;;;6.47;;
65971;SDS011;52726;48.852;9.152;2023-06-22T04:08:39;11.55;;;6.32;;
65971;SDS011;52726;48.852;9.152;2023-06-22T04:11:05;8.98;;;6.75;;
65971;SDS011;52726;48.852;9.152;2023-06-22T04:13:31;11.10;;;6.32;;
65971;SDS011;52726;48.852;9.152;2023-06-22T04:15:56;10.05;;;6.18;;
65971;SDS011;52726;48.852;9.152;2023-06-22T04:18:21;8.80;;;6.30;;
65971;SDS011;52726;48.852;9.152;2023-06-22T04:20:47;12.07;;;7.18;;
65971;SDS011;52726;48.852;9.152;2023-06-22T04:23:12;9.25;;;6.35;;
65971;SDS011;52726;48.852;9.152;2023-06-22T04:25:38;12.80;;;6.57;;
65971;SDS011;52726;48.852;9.152;2023-06-22T04:28:04;14.52;;;6.38;;
65971;SDS011;52726;48.852;9.152;2023-06-22T04:30:29;11.45;;;6.60;;
65971;SDS011;52726;48.852;9.152;2023-06-22T04:32:56;10.13;;;6.10;;
65971;SDS011;52726;48.852;9.152;2023-06-22T04:35:23;9.25;;;5.70;;
65971;SDS011;52726;48.852;9.152;2023-06-22T04:37:49;9.25;;;6.93;;
65971;SDS011;52726;48.852;9.152;2023-06-22T04:40:14;11.20;;;5.82;;
65971;SDS011;52726;48.852;9.152;2023-06-22T04:42:40;8.90;;;5.93;;
65971;SDS011;52726;48.852;9.152;2023-06-22T04:45:17;10.25;;;6.53;;
65971;SDS011;52726;48.852;9.152;2023-06-22T04:47:42;11.48;;;6.88;;
65971;SDS011;52726;48.852;9.152;2023-06-22T04:50:10;11.32;;;5.93;;
65971;SDS011;52726;48.852;9.152;2023-06-22T04:52:37;8.40;;;5.78;;
65971;SDS011;52726;48.852;9.152;2023-06-22T04:55:02;9.40;;;6.10;;
65971;SDS011;52726;48.852;9.152;2023-06-22T04:57:28;8.48;;;5.88;;
65971;SDS011;52726;48.852;9.152;2023-06-22T04:59:57;16.98;;;6.78;;
65971;SDS011;52726;48.852;9.152;2023-06-22T05:02:52;11.77;;;6.22;;
65971;SDS011;52726;48.852;9.152;2023-06-22T05:05:17;9.07;;;6.45;;
65971;SDS011;52726;48.852;9.152;2023-06-22T05:07:43;11.25;;;6.35;;
65971;SDS011;52726;48.852;9.152;2023-06-22T05:10:10;9.23;;;5.90;;
65971;SDS011;52726;48.852;9.152;2023-06-22T05:12:37;9.82;;;5.65;;
65971;SDS011;52726;48.852;9.152;2023-06-22T05:15:03;13.38;;;6.15;;
65971;SDS011;52726;48.852;9.152;2023-06-22T05:17:30;12.10;;;6.00;;
65971;SDS011;52726;48.852;9.152;2023-06-22T05:19:55;9.85;;;6.43;;
65971;SDS011;52726;48.852;9.152;2023-06-22T05:22:20;10.35;;;6.25;;
65971;SDS011;52726;48.852;9.152;2023-06-22T05:24:46;9.88;;;6.50;;
65971;SDS011;52726;48.852;9.152;2023-06-22T05:32:59;9.52;;;6.03;;
65971;SDS011;52726;48.852;9.152;2023-06-22T05:38:53;9.40;;;5.90;;
65971;SDS011;52726;48.852;9.152;2023-06-22T05:50:35;8.98;;;5.63;;
65971;SDS011;52726;48.852;9.152;2023-06-22T05:56:34;11.88;;;6.60;;
65971;SDS011;52726;48.852;9.152;2023-06-22T05:59:01;12.25;;;5.95;;
65971;SDS011;52726;48.852;9.152;2023-06-22T06:01:32;14.95;;;5.97;;
65971;SDS011;52726;48.852;9.152;2023-06-22T06:04:10;8.50;;;5.80;;
65971;SDS011;52726;48.852;9.152;2023-06-22T06:06:44;10.00;;;6.35;;
65971;SDS011;52726;48.852;9.152;2023-06-22T06:09:15;11.13;;;5.80;;
65971;SDS011;52726;48.852;9.152;2023-06-22T06:11:57;11.60;;;5.90;;
65971;SDS011;52726;48.852;9.152;2023-06-22T06:14:28;11.65;;;6.07;;
65971;SDS011;52726;48.852;9.152;2023-06-22T06:17:06;9.60;;;5.95;;
65971;SDS011;52726;48.852;9.152;2023-06-22T06:19:38;12.13;;;6.13;;
65971;SDS011;52726;48.852;9.152;2023-06-22T06:22:10;14.60;;;6.30;;
65971;SDS011;52726;48.852;9.152;2023-06-22T06:27:48;9.57;;;5.47;;
65971;SDS011;52726;48.852;9.152;2023-06-22T06:30:44;10.15;;;5.03;;
65971;SDS011;52726;48.852;9.152;2023-06-22T06:33:47;12.73;;;6.07;;
65971;SDS011;52726;48.852;9.152;2023-06-22T06:36:29;11.82;;;5.53;;
65971;SDS011;52726;48.852;9.152;2023-06-22T06:39:31;10.13;;;5.93;;
65971;SDS011;52726;48.852;9.152;2023-06-22T06:49:07;9.90;;;5.03;;
65971;SDS011;52726;48.852;9.152;2023-06-22T06:59:11;8.90;;;5.55;;
65971;SDS011;52726;48.852;9.152;2023-06-22T07:02:38;7.93;;;4.85;;
65971;SDS011;52726;48.852;9.152;2023-06-22T07:05:55;9.50;;;4.65;;
65971;SDS011;52726;48.852;9.152;2023-06-22T07:11:46;6.40;;;4.47;;
65971;SDS011;52726;48.852;9.152;2023-06-22T07:20:42;10.00;;;4.78;;
65971;SDS011;52726;48.852;9.152;2023-06-22T07:23:08;6.57;;;4.30;;
65971;SDS011;52726;48.852;9.152;2023-06-22T07:25:36;9.90;;;4.60;;
65971;SDS011;52726;48.852;9.152;2023-06-22T07:28:19;8.65;;;4.85;;
65971;SDS011;52726;48.852;9.152;2023-06-22T07:31:02;7.60;;;4.88;;
65971;SDS011;52726;48.852;9.152;2023-06-22T07:36:29;6.85;;;4.28;;
65971;SDS011;52726;48.852;9.152;2023-06-22T07:38:58;6.65;;;3.60;;
65971;SDS011;52726;48.852;9.152;2023-06-22T07:44:27;6.10;;;3.90;;
65971;SDS011;52726;48.852;9.152;2023-06-22T07:47:05;8.68;;;4.57;;
65971;SDS011;52726;48.852;9.152;2023-06-22T07:53:05;6.95;;;3.85;;
65971;SDS011;52726;48.852;9.152;2023-06-22T07:55:36;6.90;;;3.63;;
65971;SDS011;52726;48.852;9.152;2023-06-22T08:01:35;10.05;;;4.35;;
65971;SDS011;52726;48.852;9.152;2023-06-22T08:04:03;5.93;;;4.10;;
65971;SDS011;52726;48.852;9.152;2023-06-22T08:06:30;8.10;;;3.80;;
65971;SDS011;52726;48.852;9.152;2023-06-22T08:09:14;7.78;;;4.22;;
65971;SDS011;52726;48.852;9.152;2023-06-22T08:11:40;7.75;;;3.47;;
65971;SDS011;52726;48.852;9.152;2023-06-22T08:14:16;9.13;;;4.18;;
65971;SDS011;52726;48.852;9.152;2023-06-22T08:17:03;7.72;;;3.92;;
65971;SDS011;52726;48.852;9.152;2023-06-22T08:19:38;6.00;;;3.53;;
65971;SDS011;52726;48.852;9.152;2023-06-22T08:22:12;6.57;;;3.47;;
65971;SDS011;52726;48.852;9.152;2023-06-22T08:28:06;8.90;;;3.55;;
65971;SDS011;52726;48.852;9.152;2023-06-22T08:30:50;11.60;;;3.90;;
65971;SDS011;52726;48.852;9.152;2023-06-22T08:40:42;7.25;;;3.47;;
65971;SDS011;52726;48.852;9.152;2023-06-22T08:43:44;6.72;;;3.95;;
65971;SDS011;52726;48.852;9.152;2023-06-22T08:46:15;8.52;;;4.20;;
65971;SDS011;52726;48.852;9.152;2023-06-22T08:49:07;7.43;;;3.78;;
65971;SDS011;52726;48.852;9.152;2023-06-22T08:51:36;5.90;;;3.88;;
65971;SDS011;52726;48.852;9.152;2023-06-22T08:54:12;6.95;;;4.07;;
65971;SDS011;52726;48.852;9.152;2023-06-22T08:56:43;6.05;;;3.70;;
65971;SDS011;52726;48.852;9.152;2023-06-22T08:59:09;7.85;;;4.30;;
65971;SDS011;52726;48.852;9.152;2023-06-22T09:01:34;7.68;;;4.38;;
65971;SDS011;52726;48.852;9.152;2023-06-22T09:04:02;6.55;;;3.88;;
65971;SDS011;52726;48.852;9.152;2023-06-22T09:06:39;8.38;;;4.47;;
65971;SDS011;52726;48.852;9.152;2023-06-22T09:09:20;7.30;;;4.28;;
65971;SDS011;52726;48.852;9.152;2023-06-22T09:12:10;16.23;;;4.28;;
65971;SDS011;52726;48.852;9.152;2023-06-22T09:15:01;7.68;;;3.58;;
65971;SDS011;52726;48.852;9.152;2023-06-22T09:17:47;8.30;;;3.45;;
65971;SDS011;52726;48.852;9.152;2023-06-22T09:20:23;5.70;;;3.85;;
65971;SDS011;52726;48.852;9.152;2023-06-22T09:25:27;10.75;;;3.75;;
65971;SDS011;52726;48.852;9.152;2023-06-22T09:28:23;8.05;;;3.60;;
65971;SDS011;52726;48.852;9.152;2023-06-22T09:31:10;9.55;;;4.32;;
65971;SDS011;52726;48.852;9.152;2023-06-22T09:33:45;8.77;;;4.00;;
65971;SDS011;52726;48.852;9.152;2023-06-22T09:36:22;9.32;;;4.30;;
65971;SDS011;52726;48.852;9.152;2023-06-22T09:46:17;8.40;;;4.13;;
65971;SDS011;52726;48.852;9.152;2023-06-22T09:52:51;10.40;;;4.47;;
65971;SDS011;52726;48.852;9.152;2023-06-22T09:58:23;8.27;;;4.03;;
65971;SDS011;52726;48.852;9.152;2023-06-22T10:01:29;6.28;;;3.50;;
65971;SDS011;52726;48.852;9.152;2023-06-22T10:04:02;8.07;;;3.78;;
65971;SDS011;52726;48.852;9.152;2023-06-22T10:06:55;8.98;;;4.20;;
65971;SDS011;52726;48.852;9.152;2023-06-22T10:09:37;6.47;;;4.15;;
65971;SDS011;52726;48.852;9.152;2023-06-22T10:12:08;6.90;;;3.78;;
65971;SDS011;52726;48.852;9.152;2023-06-22T10:14:43;14.20;;;4.35;;
65971;SDS011;52726;48.852;9.152;2023-06-22T10:17:16;10.20;;;4.10;;
65971;SDS011;52726;48.852;9.152;2023-06-22T10:19:47;16.25;;;4.03;;
65971;SDS011;52726;48.852;9.152;2023-06-22T10:22:16;7.20;;;4.10;;
65971;SDS011;52726;48.852;9.152;2023-06-22T10:24:46;7.85;;;4.32;;
65971;SDS011;52726;48.852;9.152;2023-06-22T10:27:15;8.27;;;3.90;;
65971;SDS011;52726;48.852;9.152;2023-06-22T10:29:41;8.95;;;4.18;;
65971;SDS011;52726;48.852;9.152;2023-06-22T10:35:01;8.27;;;4.30;;
65971;SDS011;52726;48.852;9.152;2023-06-22T10:37:27;8.90;;;4.28;;
65971;SDS011;52726;48.852;9.152;2023-06-22T10:39:52;7.85;;;4.03;;
65971;SDS011;52726;48.852;9.152;2023-06-22T10:42:25;8.55;;;4.57;;
65971;SDS011;52726;48.852;9.152;2023-06-22T10:44:54;9.65;;;4.40;;
65971;SDS011;52726;48.852;9.152;2023-06-22T10:47:19;10.10;;;3.88;;
65971;SDS011;52726;48.852;9.152;2023-06-22T10:49:50;10.48;;;4.03;;
65971;SDS011;52726;48.852;9.152;2023-06-22T10:52:26;8.55;;;4.07;;
65971;SDS011;52726;48.852;9.152;2023-06-22T10:55:00;11.40;;;4.13;;
65971;SDS011;52726;48.852;9.152;2023-06-22T10:57:38;7.38;;;3.85;;
65971;SDS011;52726;48.852;9.152;2023-06-22T11:00:07;11.77;;;4.47;;
65971;SDS011;52726;48.852;9.152;2023-06-22T11:02:45;13.50;;;3.95;;
65971;SDS011;52726;48.852;9.152;2023-06-22T11:05:14;17.20;;;3.97;;
65971;SDS011;52726;48.852;9.152;2023-06-22T11:07:46;7.35;;;4.13;;
65971;SDS011;52726;48.852;9.152;2023-06-22T11:10:16;13.88;;;4.20;;
65971;SDS011;52726;48.852;9.152;2023-06-22T11:12:50;6.72;;;3.95;;
65971;SDS011;52726;48.852;9.152;2023-06-22T11:15:21;21.38;;;4.43;;
65971;SDS011;52726;48.852;9.152;2023-06-22T11:17:46;8.75;;;4.00;;
65971;SDS011;52726;48.852;9.152;2023-06-22T11:26:34;10.82;;;4.07;;
65971;SDS011;52726;48.852;9.152;2023-06-22T11:29:02;10.27;;;4.55;;
65971;SDS011;52726;48.852;9.152;2023-06-22T11:31:31;7.38;;;3.55;;
65971;SDS011;52726;48.852;9.152;2023-06-22T11:33:59;9.70;;;3.88;;
65971;SDS011;52726;48.852;9.152;2023-06-22T11:36:25;9.02;;;3.88;;
65971;SDS011;52726;48.852;9.152;2023-06-22T11:38:51;10.15;;;3.80;;
65971;SDS011;52726;48.852;9.152;2023-06-22T11:41:16;11.45;;;4.28;;
65971;SDS011;52726;48.852;9.152;2023-06-22T11:43:42;7.90;;;3.95;;
65971;SDS011;52726;48.852;9.152;2023-06-22T11:46:07;11.73;;;4.15;;
65971;SDS011;52726;48.852;9.152;2023-06-22T11:48:32;10.95;;;4.93;;
65971;SDS011;52726;48.852;9.152;2023-06-22T11:51:01;15.50;;;4.95;;
65971;SDS011;52726;48.852;9.152;2023-06-22T11:53:31;11.57;;;4.40;;
65971;SDS011;52726;48.852;9.152;2023-06-22T11:56:00;9.10;;;4.18;;
65971;SDS011;52726;48.852;9.152;2023-06-22T11:58:26;8.60;;;4.00;;
65971;SDS011;52726;48.852;9.152;2023-06-22T12:00:52;6.70;;;3.88;;
65971;SDS011;52726;48.852;9.152;2023-06-22T12:03:18;8.70;;;3.85;;
65971;SDS011;52726;48.852;9.152;2023-06-22T12:05:44;7.07;;;3.83;;
65971;SDS011;52726;48.852;9.152;2023-06-22T12:08:12;14.70;;;4.22;;
65971;SDS011;52726;48.852;9.152;2023-06-22T12:10:38;8.63;;;3.97;;
65971;SDS011;52726;48.852;9.152;2023-06-22T12:13:04;17.13;;;4.35;;
65971;SDS011;52726;48.852;9.152;2023-06-22T12:15:31;13.77;;;4.38;;
65971;SDS011;52726;48.852;9.152;2023-06-22T12:17:57;9.38;;;4.57;;
65971;SDS011;52726;48.852;9.152;2023-06-22T12:20:23;9.40;;;4.20;;
65971;SDS011;52726;48.852;9.152;2023-06-22T12:22:48;13.90;;;4.28;;
65971;SDS011;52726;48.852;9.152;2023-06-22T12:25:16;9.95;;;4.13;;
65971;SDS011;52726;48.852;9.152;2023-06-22T12:27:42;10.00;;;4.10;;
65971;SDS011;52726;48.852;9.152;2023-06-22T12:30:08;11.43;;;4.05;;
65971;SDS011;52726;48.852;9.152;2023-06-22T12:32:34;11.70;;;4.28;;
65971;SDS011;52726;48.852;9.152;2023-06-22T12:34:59;13.45;;;4.25;;
65971;SDS011;52726;48.852;9.152;2023-06-22T12:37:24;9.52;;;4.53;;
65971;SDS011;52726;48.852;9.152;2023-06-22T12:39:50;19.52;;;4.72;;
65971;SDS011;52726;48.852;9.152;2023-06-22T12:42:16;12.70;;;4.40;;
65971;SDS011;52726;48.852;9.152;2023-06-22T12:44:41;10.98;;;4.50;;
65971;SDS011;52726;48.852;9.152;2023-06-22T12:47:07;12.50;;;4.43;;
65971;SDS011;52726;48.852;9.152;2023-06-22T12:49:36;12.52;;;4.00;;
65971;SDS011;52726;48.852;9.152;2023-06-22T12:52:02;10.05;;;4.35;;
65971;SDS011;52726;48.852;9.152;2023-06-22T12:54:28;14.48;;;4.40;;
65971;SDS011;52726;48.852;9.152;2023-06-22T12:56:57;17.92;;;4.30;;
65971;SDS011;52726;48.852;9.152;2023-06-22T12:59:22;10.68;;;4.15;;
65971;SDS011;52726;48.852;9.152;2023-06-22T13:01:48;13.60;;;4.22;;
65971;SDS011;52726;48.852;9.152;2023-06-22T13:04:13;10.20;;;4.32;;
65971;SDS011;52726;48.852;9.152;2023-06-22T13:06:43;11.82;;;4.57;;
65971;SDS011;52726;48.852;9.152;2023-06-22T13:09:12;13.20;;;4.07;;
65971;SDS011;52726;48.852;9.152;2023-06-22T13:11:37;8.30;;;4.30;;
65971;SDS011;52726;48.852;9.152;2023-06-22T13:14:03;12.57;;;4.47;;
65971;SDS011;52726;48.852;9.152;2023-06-22T13:16:28;8.73;;;4.00;;
65971;SDS011;52726;48.852;9.152;2023-06-22T13:18:53;8.77;;;4.05;;
65971;SDS011;52726;48.852;9.152;2023-06-22T13:21:19;13.77;;;4.50;;
65971;SDS011;52726;48.852;9.152;2023-06-22T13:23:44;11.77;;;4.03;;
65971;SDS011;52726;48.852;9.152;2023-06-22T13:26:10;9.35;;;4.18;;
65971;SDS011;52726;48.852;9.152;2023-06-22T13:28:35;19.13;;;4.93;;
65971;SDS011;52726;48.852;9.152;2023-06-22T13:31:00;16.73;;;4.53;;
65971;SDS011;52726;48.852;9.152;2023-06-22T13:33:26;12.15;;;5.15;;
65971;SDS011;52726;48.852;9.152;2023-06-22T13:35:51;12.75;;;4.50;;
65971;SDS011;52726;48.852;9.152;2023-06-22T13:38:17;10.20;;;4.78;;
65971;SDS011;52726;48.852;9.152;2023-06-22T13:40:42;12.20;;;4.35;;
65971;SDS011;52726;48.852;9.152;2023-06-22T13:43:08;7.82;;;4.03;;
65971;SDS011;52726;48.852;9.152;2023-06-22T13:45:33;9.23;;;4.40;;
65971;SDS011;52726;48.852;9.152;2023-06-22T13:47:59;9.35;;;4.07;;
65971;SDS011;52726;48.852;9.152;2023-06-22T13:50:27;12.68;;;4.43;;
65971;SDS011;52726;48.852;9.152;2023-06-22T13:52:55;11.23;;;4.03;;
65971;SDS011;52726;48.852;9.152;2023-06-22T13:55:21;10.93;;;4.22;;
65971;SDS011;52726;48.852;9.152;2023-06-22T13:57:47;11.73;;;4.47;;
65971;SDS011;52726;48.852;9.152;2023-06-22T14:00:15;15.70;;;4.20;;
65971;SDS011;52726;48.852;9.152;2023-06-22T14:02:41;13.95;;;4.45;;
65971;SDS011;52726;48.852;9.152;2023-06-22T14:05:09;12.93;;;4.18;;
65971;SDS011;52726;48.852;9.152;2023-06-22T14:10:37;9.25;;;4.07;;
65971;SDS011;52726;48.852;9.152;2023-06-22T14:13:03;13.75;;;4.18;;
65971;SDS011;52726;48.852;9.152;2023-06-22T14:15:30;12.50;;;4.53;;
65971;SDS011;52726;48.852;9.152;2023-06-22T14:17:56;7.72;;;4.05;;
65971;SDS011;52726;48.852;9.152;2023-06-22T14:20:24;12.80;;;4.38;;
65971;SDS011;52726;48.852;9.152;2023-06-22T14:23:12;8.88;;;3.88;;
65971;SDS011;52726;48.852;9.152;2023-06-22T14:25:38;11.93;;;4.10;;
65971;SDS011;52726;48.852;9.152;2023-06-22T14:28:04;14.95;;;5.75;;
65971;SDS011;52726;48.852;9.152;2023-06-22T14:33:18;10.77;;;4.43;;
65971;SDS011;52726;48.852;9.152;2023-06-22T14:35:43;12.57;;;4.50;;
65971;SDS011;52726;48.852;9.152;2023-06-22T14:38:09;9.25;;;4.43;;
65971;SDS011;52726;48.852;9.152;2023-06-22T14:40:37;8.77;;;4.30;;
65971;SDS011;52726;48.852;9.152;2023-06-22T14:43:02;7.85;;;3.22;;
65971;SDS011;52726;48.852;9.152;2023-06-22T14:45:28;9.20;;;3.38;;
65971;SDS011;52726;48.852;9.152;2023-06-22T14:47:53;7.22;;;3.20;;
65971;SDS011;52726;48.852;9.152;2023-06-22T14:50:19;15.20;;;4.60;;
65971;SDS011;52726;48.852;9.152;2023-06-22T14:52:44;13.20;;;3.70;;
65971;SDS011;52726;48.852;9.152;2023-06-22T14:58:10;8.07;;;3.10;;
65971;SDS011;52726;48.852;9.152;2023-06-22T15:03:34;8.27;;;2.60;;
65971;SDS011;52726;48.852;9.152;2023-06-22T15:06:10;6.88;;;2.50;;
65971;SDS011;52726;48.852;9.152;2023-06-22T15:08:40;7.22;;;2.60;;
65971;SDS011;52726;48.852;9.152;2023-06-22T15:11:27;9.25;;;2.33;;
65971;SDS011;52726;48.852;9.152;2023-06-22T15:13:52;11.07;;;2.53;;
65971;SDS011;52726;48.852;9.152;2023-06-22T15:16:18;12.75;;;2.92;;
65971;SDS011;52726;48.852;9.152;2023-06-22T15:18:43;18.60;;;3.63;;
65971;SDS011;52726;48.852;9.152;2023-06-22T15:21:10;11.43;;;2.30;;
65971;SDS011;52726;48.852;9.152;2023-06-22T15:23:35;5.60;;;2.75;;
65971;SDS011;52726;48.852;9.152;2023-06-22T15:26:01;10.77;;;3.08;;
65971;SDS011;52726;48.852;9.152;2023-06-22T15:28:29;8.13;;;2.88;;
65971;SDS011;52726;48.852;9.152;2023-06-22T15:30:57;8.57;;;2.65;;
65971;SDS011;52726;48.852;9.152;2023-06-22T15:33:22;9.27;;;2.72;;
65971;SDS011;52726;48.852;9.152;2023-06-22T15:35:49;6.68;;;2.60;;
65971;SDS011;52726;48.852;9.152;2023-06-22T15:38:14;7.63;;;2.67;;
65971;SDS011;52726;48.852;9.152;2023-06-22T15:40:40;6.55;;;2.03;;
65971;SDS011;52726;48.852;9.152;2023-06-22T15:43:11;10.82;;;2.35;;
65971;SDS011;52726;48.852;9.152;2023-06-22T15:45:45;12.40;;;2.92;;
65971;SDS011;52726;48.852;9.152;2023-06-22T15:48:10;9.23;;;2.63;;
65971;SDS011;52726;48.852;9.152;2023-06-22T15:50:35;6.20;;;2.38;;
65971;SDS011;52726;48.852;9.152;2023-06-22T15:53:01;11.73;;;2.88;;
65971;SDS011;52726;48.852;9.152;2023-06-22T15:55:26;8.80;;;2.45;;
65971;SDS011;52726;48.852;9.152;2023-06-22T15:57:52;8.88;;;2.80;;
65971;SDS011;52726;48.852;9.152;2023-06-22T16:00:17;10.80;;;3.22;;
65971;SDS011;52726;48.852;9.152;2023-06-22T16:02:44;7.57;;;2.38;;
65971;SDS011;52726;48.852;9.152;2023-06-22T16:05:13;7.88;;;2.72;;
65971;SDS011;52726;48.852;9.152;2023-06-22T16:07:39;13.10;;;3.47;;
65971;SDS011;52726;48.852;9.152;2023-06-22T16:10:05;11.25;;;3.35;;
65971;SDS011;52726;48.852;9.152;2023-06-22T16:12:33;9.55;;;3.15;;
65971;SDS011;52726;48.852;9.152;2023-06-22T16:14:59;10.38;;;3.25;;
65971;SDS011;52726;48.852;9.152;2023-06-22T16:17:25;6.63;;;2.70;;
65971;SDS011;52726;48.852;9.152;2023-06-22T16:19:52;13.32;;;3.25;;
65971;SDS011;52726;48.852;9.152;2023-06-22T16:22:19;6.00;;;2.30;;
65971;SDS011;52726;48.852;9.152;2023-06-22T16:24:48;9.18;;;2.95;;
65971;SDS011;52726;48.852;9.152;2023-06-22T16:27:13;8.77;;;3.40;;
65971;SDS011;52726;48.852;9.152;2023-06-22T16:29:39;10.07;;;3.20;;
65971;SDS011;52726;48.852;9.152;2023-06-22T16:32:05;7.68;;;2.83;;
65971;SDS011;52726;48.852;9.152;2023-06-22T16:34:31;8.65;;;2.53;;
65971;SDS011;52726;48.852;9.152;2023-06-22T16:36:57;10.68;;;2.80;;
65971;SDS011;52726;48.852;9.152;2023-06-22T16:39:22;8.98;;;2.63;;
65971;SDS011;52726;48.852;9.152;2023-06-22T16:41:48;12.77;;;2.70;;
65971;SDS011;52726;48.852;9.152;2023-06-22T16:44:14;6.88;;;2.78;;
65971;SDS011;52726;48.852;9.152;2023-06-22T16:46:40;9.73;;;2.40;;
65971;SDS011;52726;48.852;9.152;2023-06-22T16:49:05;16.45;;;3.28;;
65971;SDS011;52726;48.852;9.152;2023-06-22T16:51:31;11.90;;;2.78;;
65971;SDS011;52726;48.852;9.152;2023-06-22T16:53:56;6.95;;;2.70;;
65971;SDS011;52726;48.852;9.152;2023-06-22T16:56:25;8.93;;;2.63;;
65971;SDS011;52726;48.852;9.152;2023-06-22T16:58:55;12.35;;;2.90;;
65971;SDS011;52726;48.852;9.152;2023-06-22T17:01:22;14.60;;;2.92;;
65971;SDS011;52726;48.852;9.152;2023-06-22T17:03:55;8.68;;;2.55;;
65971;SDS011;52726;48.852;9.152;2023-06-22T17:06:42;6.82;;;2.53;;